Stations météo

réclame
Mon MeteoGroup
Bristol International Airport, Grande-Bretagne (3726): Température de l'air & dewpoint: 14.09.2018 17:00:00 - 20.09.2018 17:00:00 (BST)Bristol International Airport, Grande-Bretagne (3726): Vitesse du vent: 14.09.2018 17:00:00 - 20.09.2018 17:00:00 (BST)Bristol International Airport, Grande-Bretagne (3726): Direction du vent: 14.09.2018 17:00:00 - 20.09.2018 17:00:00 (BST)Bristol International Airport, Grande-Bretagne (3726): visibility: 14.09.2018 17:00:00 - 20.09.2018 17:00:00 (BST)
Date & Time tt [°C] td [°C] ff [km/h] ff [knt] dd vv [km]
20.09.2018 17:00:00 17,0 17,0 28 15 SSW 10
20.09.2018 16:00:00 17,0 17,0 34 18 S 9
20.09.2018 15:00:00 17,0 17,0 29 16 SSW 10
20.09.2018 14:00:00 17,0 16,0 26 14 SSW 10
20.09.2018 13:00:00 17,0 17,0 31 17 S 10
20.09.2018 12:00:00 16,0 16,0 24 13 SSW 10
20.09.2018 11:00:00 16,0 16,0 22 12 S 10
20.09.2018 10:00:00 16,0 16,0 16 9 SSW 10
20.09.2018 09:00:00 14,0 14,0 8 4 SSW 4,1
20.09.2018 08:00:00 13,0 13,0 4 2 - 8
20.09.2018 07:00:00 13,0 13,0 11 6 WNW 1,1
20.09.2018 06:00:00 15,0 15,0 15 8 SW 3,5
20.09.2018 05:00:00 14,0 14,0 11 6 S 10
20.09.2018 04:00:00 12,0 12,0 5 3 - 10
20.09.2018 03:00:00 12,0 12,0 9 5 W 2,4
20.09.2018 02:00:00 12,0 12,0 5 3 - 5
20.09.2018 01:00:00 12,0 12,0 5 3 SW 5
20.09.2018 00:00:00 12,0 12,0 9 5 SW 8
19.09.2018 23:00:00 12,0 12,0 15 8 WSW 3,4
19.09.2018 22:00:00 13,0 13,0 13 7 WSW 2,2
19.09.2018 21:00:00 13,0 13,0 18 10 WSW 4,0
19.09.2018 20:00:00 14,0 13,0 22 12 WSW 10
19.09.2018 19:00:00 14,0 14,0 24 13 WSW 10
19.09.2018 18:00:00 14,0 14,0 28 15 WSW 3,5
19.09.2018 17:00:00 15,0 14,0 35 19 W 6
19.09.2018 16:00:00 15,0 15,0 37 20 W 3,7
19.09.2018 15:00:00 19,0 15,0 28 15 SW 10
19.09.2018 14:00:00 20,0 13,0 34 18 SW 10
19.09.2018 13:00:00 21,0 12,0 29 16 SW 10
19.09.2018 12:00:00 20,0 13,0 34 18 SW 10
19.09.2018 11:00:00 19,0 15,0 29 16 SSW 10
19.09.2018 10:00:00 18,0 15,0 22 12 SSW 10
19.09.2018 09:00:00 17,0 15,0 26 14 SSW 10
19.09.2018 08:00:00 16,0 15,0 24 13 SSW 10
19.09.2018 07:00:00 15,0 14,0 18 10 SSW 10
19.09.2018 06:00:00 15,0 15,0 15 8 SSW 10
19.09.2018 05:00:00 15,0 15,0 15 8 SSW 10
19.09.2018 04:00:00 15,0 15,0 9 5 S 10
19.09.2018 03:00:00 15,0 15,0 8 4 SW 10
19.09.2018 02:00:00 15,0 15,0 16 9 SSW 10
19.09.2018 01:00:00 15,0 15,0 13 7 SSW 10
19.09.2018 00:00:00 16,0 16,0 21 11 SSW 3,7
18.09.2018 23:00:00 17,0 15,0 16 9 SSW 10
18.09.2018 22:00:00 17,0 15,0 21 11 SSW 10
18.09.2018 21:00:00 17,0 15,0 21 11 SSW 10
18.09.2018 20:00:00 17,0 15,0 22 12 SSW 10
18.09.2018 19:00:00 18,0 15,0 22 12 SSW 10
18.09.2018 18:00:00 19,0 16,0 22 12 S 10
18.09.2018 17:00:00 18,0 17,0 13 7 SW 10
18.09.2018 16:00:00 17,0 17,0 15 8 WSW 10
18.09.2018 15:00:00 18,0 16,0 18 10 SW 10
18.09.2018 14:00:00 19,0 15,0 26 14 SW 10
18.09.2018 13:00:00 19,0 15,0 26 14 SW 10
18.09.2018 12:00:00 17,0 14,0 29 16 WSW 10
18.09.2018 11:00:00 16,0 14,0 22 12 WSW 10
18.09.2018 10:00:00 16,0 14,0 24 13 SW 10
18.09.2018 09:00:00 15,0 14,0 26 14 WSW 10
18.09.2018 08:00:00 16,0 14,0 39 21 SW 10
18.09.2018 07:00:00 16,0 16,0 26 14 SW 10
18.09.2018 06:00:00 17,0 16,0 29 16 SSW 10
18.09.2018 05:00:00 17,0 16,0 31 17 S 10
18.09.2018 04:00:00 17,0 17,0 29 16 S 10
18.09.2018 03:00:00 17,0 17,0 35 19 S 9
18.09.2018 02:00:00 18,0 17,0 35 19 S 10
18.09.2018 01:00:00 17,0 16,0 26 14 S 10
18.09.2018 00:00:00 17,0 15,0 15 8 S 10
17.09.2018 23:00:00 16,0 13,0 9 5 SSE 10
17.09.2018 22:00:00 15,0 12,0 5 3 - 10
17.09.2018 21:00:00 17,0 12,0 16 9 ESE 10
17.09.2018 20:00:00 17,0 13,0 9 5 ESE 10
17.09.2018 19:00:00 18,0 13,0 16 9 SSE 10
17.09.2018 18:00:00 19,0 13,0 18 10 SSE 10
17.09.2018 17:00:00 20,0 14,0 21 11 S 10
17.09.2018 16:00:00 20,0 15,0 21 11 S 10
17.09.2018 15:00:00 19,0 16,0 22 12 S 10
17.09.2018 14:00:00 19,0 17,0 21 11 S 10
17.09.2018 13:00:00 18,0 17,0 22 12 S 10
17.09.2018 12:00:00 18,0 17,0 22 12 S 10
17.09.2018 11:00:00 18,0 17,0 18 10 S 10
17.09.2018 10:00:00 17,0 17,0 18 10 S 10
17.09.2018 09:00:00 17,0 17,0 21 11 S 10
17.09.2018 08:00:00 17,0 17,0 21 11 S 10
17.09.2018 07:00:00 16,0 16,0 21 11 S 7
17.09.2018 06:00:00 17,0 17,0 18 10 S 9
17.09.2018 05:00:00 17,0 17,0 16 9 S 6
17.09.2018 04:00:00 17,0 17,0 13 7 S 9
17.09.2018 03:00:00 17,0 17,0 15 8 S 8
17.09.2018 02:00:00 17,0 17,0 15 8 S 10
17.09.2018 01:00:00 17,0 17,0 13 7 S 8
17.09.2018 00:00:00 17,0 17,0 15 8 S 5
16.09.2018 23:00:00 17,0 17,0 16 9 SSW 10
16.09.2018 22:00:00 17,0 17,0 16 9 SSW 10
16.09.2018 21:00:00 17,0 17,0 18 10 SSW 10
16.09.2018 20:00:00 17,0 17,0 15 8 SSW 10
16.09.2018 19:00:00 18,0 17,0 16 9 S 10
16.09.2018 18:00:00 18,0 17,0 18 10 S 10
16.09.2018 17:00:00 18,0 17,0 18 10 S 10
16.09.2018 16:00:00 19,0 17,0 16 9 SSW 10
16.09.2018 15:00:00 18,0 16,0 18 10 SSW 10
16.09.2018 14:00:00 18,0 16,0 24 13 SSW 10
16.09.2018 13:00:00 18,0 16,0 24 13 S 10
16.09.2018 12:00:00 17,0 15,0 24 13 SSW 10
16.09.2018 11:00:00 16,0 14,0 18 10 S 10
16.09.2018 10:00:00 15,0 14,0 18 10 S 10
16.09.2018 09:00:00 15,0 14,0 16 9 SSW 10
16.09.2018 08:00:00 14,0 14,0 16 9 SSW 10
16.09.2018 07:00:00 13,0 13,0 16 9 S 10
16.09.2018 06:00:00 13,0 13,0 16 9 SSW 10
16.09.2018 05:00:00 13,0 12,0 15 8 S 10
16.09.2018 04:00:00 13,0 13,0 13 7 S 10
16.09.2018 03:00:00 13,0 13,0 18 10 S 10
16.09.2018 02:00:00 13,0 12,0 15 8 S 10
16.09.2018 01:00:00 13,0 13,0 15 8 S 10
16.09.2018 00:00:00 13,0 12,0 15 8 S 10
15.09.2018 23:00:00 14,0 13,0 13 7 S 10
15.09.2018 22:00:00 14,0 13,0 13 7 S 10
15.09.2018 21:00:00 14,0 13,0 11 6 S 10
15.09.2018 20:00:00 15,0 13,0 9 5 S 10
15.09.2018 19:00:00 16,0 13,0 5 3 WSW 10
15.09.2018 18:00:00 16,0 13,0 8 4 WSW 10
15.09.2018 17:00:00 17,0 13,0 11 6 W 10
15.09.2018 16:00:00 17,0 12,0 15 8 W 10
15.09.2018 15:00:00 17,0 13,0 18 10 W 10
15.09.2018 14:00:00 17,0 12,0 16 9 WSW 10
15.09.2018 13:00:00 17,0 13,0 16 9 WSW 10
15.09.2018 12:00:00 16,0 13,0 18 10 WSW 10
15.09.2018 11:00:00 14,0 14,0 13 7 SW 10
15.09.2018 10:00:00 14,0 13,0 13 7 SW 10
15.09.2018 09:00:00 12,0 12,0 11 6 SW 10
15.09.2018 08:00:00 12,0 12,0 9 5 SSW 10
15.09.2018 07:00:00 12,0 12,0 9 5 SW 10
15.09.2018 06:00:00 12,0 12,0 8 4 SW 10
15.09.2018 05:00:00 13,0 13,0 8 4 SW 10
15.09.2018 04:00:00 13,0 13,0 8 4 SSW 10
15.09.2018 03:00:00 13,0 13,0 9 5 WSW 10
15.09.2018 02:00:00 12,0 12,0 13 7 W 10
15.09.2018 01:00:00 13,0 13,0 13 7 WSW 10
15.09.2018 00:00:00 13,0 13,0 16 9 W 10
14.09.2018 23:00:00 13,0 13,0 16 9 W 10
14.09.2018 22:00:00 13,0 13,0 15 8 WSW 10
14.09.2018 21:00:00 13,0 13,0 21 11 WSW 10
14.09.2018 20:00:00 13,0 13,0 26 14 W 10
14.09.2018 19:00:00 15,0 13,0 29 16 WSW 10
14.09.2018 18:00:00 15,0 13,0 28 15 WSW 10
14.09.2018 17:00:00 15,0 12,0 26 14 W 10

tt = Température de l'air
td = dewpoint
ff = Vitesse du vent
dd = Direction du vent
vv = visibility

stations d'obs. à proximité